sensor_id;sensor_type;location;lat;lon;timestamp;pressure;altitude;pressure_sealevel;temperature;humidity
19890;BME280;10107;51.198;6.824;2023-12-20T00:03:36;-21491.31;;;6.51;100.00
19890;BME280;10107;51.198;6.824;2023-12-20T00:07:38;-21489.72;;;6.45;100.00
19890;BME280;10107;51.198;6.824;2023-12-20T00:11:39;-21488.41;;;6.40;100.00
19890;BME280;10107;51.198;6.824;2023-12-20T00:15:43;-21487.31;;;6.36;100.00
19890;BME280;10107;51.198;6.824;2023-12-20T00:19:45;-21486.25;;;6.32;100.00
19890;BME280;10107;51.198;6.824;2023-12-20T00:23:47;-21486.00;;;6.31;100.00
19890;BME280;10107;51.198;6.824;2023-12-20T00:27:48;-21485.84;;;6.30;100.00
19890;BME280;10107;51.198;6.824;2023-12-20T00:31:51;-21485.19;;;6.28;100.00
19890;BME280;10107;51.198;6.824;2023-12-20T00:35:53;-21485.72;;;6.30;100.00
19890;BME280;10107;51.198;6.824;2023-12-20T00:39:54;-21486.00;;;6.31;100.00
19890;BME280;10107;51.198;6.824;2023-12-20T00:43:56;-21485.59;;;6.29;100.00
19890;BME280;10107;51.198;6.824;2023-12-20T00:47:59;-21484.94;;;6.27;100.00
19890;BME280;10107;51.198;6.824;2023-12-20T00:52:01;-21482.66;;;6.18;100.00
19890;BME280;10107;51.198;6.824;2023-12-20T00:56:03;-21480.13;;;6.08;100.00
19890;BME280;10107;51.198;6.824;2023-12-20T01:00:05;-21480.25;;;6.09;100.00
19890;BME280;10107;51.198;6.824;2023-12-20T01:04:11;-21482.00;;;6.15;100.00
19890;BME280;10107;51.198;6.824;2023-12-20T01:08:12;-21483.06;;;6.20;100.00
19890;BME280;10107;51.198;6.824;2023-12-20T01:12:14;-21484.41;;;6.25;100.00
19890;BME280;10107;51.198;6.824;2023-12-20T01:16:16;-21484.53;;;6.25;100.00
19890;BME280;10107;51.198;6.824;2023-12-20T01:20:19;-21484.66;;;6.26;100.00
19890;BME280;10107;51.198;6.824;2023-12-20T01:24:21;-21484.66;;;6.26;100.00
19890;BME280;10107;51.198;6.824;2023-12-20T01:28:22;-21483.31;;;6.21;100.00
19890;BME280;10107;51.198;6.824;2023-12-20T01:32:24;-21481.59;;;6.14;100.00
19890;BME280;10107;51.198;6.824;2023-12-20T01:36:27;-21481.19;;;6.12;100.00
19890;BME280;10107;51.198;6.824;2023-12-20T01:40:29;-21481.47;;;6.13;100.00
19890;BME280;10107;51.198;6.824;2023-12-20T01:44:31;-21482.53;;;6.18;100.00
19890;BME280;10107;51.198;6.824;2023-12-20T01:48:32;-21481.06;;;6.12;100.00
19890;BME280;10107;51.198;6.824;2023-12-20T01:52:36;-21479.84;;;6.07;100.00
19890;BME280;10107;51.198;6.824;2023-12-20T01:56:37;-21478.94;;;6.04;100.00
19890;BME280;10107;51.198;6.824;2023-12-20T02:00:40;-21476.13;;;5.93;100.00
19890;BME280;10107;51.198;6.824;2023-12-20T02:04:42;-21471.44;;;5.75;100.00
19890;BME280;10107;51.198;6.824;2023-12-20T02:08:45;-21468.25;;;5.63;100.00
19890;BME280;10107;51.198;6.824;2023-12-20T02:12:47;-21466.25;;;5.55;100.00
19890;BME280;10107;51.198;6.824;2023-12-20T02:16:48;-21463.19;;;5.43;100.00
19890;BME280;10107;51.198;6.824;2023-12-20T02:20:50;-21461.19;;;5.35;100.00
19890;BME280;10107;51.198;6.824;2023-12-20T02:24:53;-21459.44;;;5.29;100.00
19890;BME280;10107;51.198;6.824;2023-12-20T02:28:54;-21457.69;;;5.22;100.00
19890;BME280;10107;51.198;6.824;2023-12-20T02:32:56;-21457.03;;;5.20;100.00
19890;BME280;10107;51.198;6.824;2023-12-20T02:36:59;-21456.09;;;5.16;100.00
19890;BME280;10107;51.198;6.824;2023-12-20T02:41:03;-21455.44;;;5.13;100.00
19890;BME280;10107;51.198;6.824;2023-12-20T02:45:05;-21457.16;;;5.20;100.00
19890;BME280;10107;51.198;6.824;2023-12-20T02:49:07;-21458.78;;;5.26;100.00
19890;BME280;10107;51.198;6.824;2023-12-20T02:53:09;-21459.84;;;5.30;100.00
19890;BME280;10107;51.198;6.824;2023-12-20T02:57:12;-21461.03;;;5.35;100.00
19890;BME280;10107;51.198;6.824;2023-12-20T03:01:13;-21460.91;;;5.34;100.00
19890;BME280;10107;51.198;6.824;2023-12-20T03:05:15;-21461.03;;;5.35;100.00
19890;BME280;10107;51.198;6.824;2023-12-20T03:09:17;-21460.91;;;5.34;100.00
19890;BME280;10107;51.198;6.824;2023-12-20T03:13:20;-21461.03;;;5.35;100.00
19890;BME280;10107;51.198;6.824;2023-12-20T03:17:21;-21459.56;;;5.29;100.00
19890;BME280;10107;51.198;6.824;2023-12-20T03:21:23;-21459.84;;;5.30;100.00
19890;BME280;10107;51.198;6.824;2023-12-20T03:25:25;-21459.69;;;5.30;100.00
19890;BME280;10107;51.198;6.824;2023-12-20T03:29:27;-21459.84;;;5.30;100.00
19890;BME280;10107;51.198;6.824;2023-12-20T03:33:29;-21458.22;;;5.24;100.00
19890;BME280;10107;51.198;6.824;2023-12-20T03:37:31;-21457.31;;;5.21;100.00
19890;BME280;10107;51.198;6.824;2023-12-20T03:41:33;-21456.63;;;5.18;100.00
19890;BME280;10107;51.198;6.824;2023-12-20T03:45:35;-21455.28;;;5.13;100.00
19890;BME280;10107;51.198;6.824;2023-12-20T03:49:37;-21453.03;;;5.04;100.00
19890;BME280;10107;51.198;6.824;2023-12-20T03:53:39;-21451.03;;;4.96;100.00
19890;BME280;10107;51.198;6.824;2023-12-20T03:57:41;-21449.28;;;4.90;100.00
19890;BME280;10107;51.198;6.824;2023-12-20T04:01:44;-21447.00;;;4.81;100.00
19890;BME280;10107;51.198;6.824;2023-12-20T04:05:46;-21445.94;;;4.77;100.00
19890;BME280;10107;51.198;6.824;2023-12-20T04:09:47;-21445.69;;;4.76;100.00
19890;BME280;10107;51.198;6.824;2023-12-20T04:13:49;-21446.63;;;4.80;100.00
19890;BME280;10107;51.198;6.824;2023-12-20T04:17:52;-21446.88;;;4.81;100.00
19890;BME280;10107;51.198;6.824;2023-12-20T04:21:54;-21445.41;;;4.75;100.00
19890;BME280;10107;51.198;6.824;2023-12-20T04:25:55;-21444.47;;;4.71;100.00
19890;BME280;10107;51.198;6.824;2023-12-20T04:29:57;-21443.13;;;4.66;100.00
19890;BME280;10107;51.198;6.824;2023-12-20T04:34:00;-21442.59;;;4.64;100.00
19890;BME280;10107;51.198;6.824;2023-12-20T04:38:01;-21443.94;;;4.69;100.00
19890;BME280;10107;51.198;6.824;2023-12-20T04:42:03;-21445.41;;;4.75;100.00
19890;BME280;10107;51.198;6.824;2023-12-20T04:46:05;-21446.06;;;4.78;100.00
19890;BME280;10107;51.198;6.824;2023-12-20T04:50:09;-21447.56;;;4.83;100.00
19890;BME280;10107;51.198;6.824;2023-12-20T04:54:11;-21449.16;;;4.89;100.00
19890;BME280;10107;51.198;6.824;2023-12-20T04:58:14;-21449.97;;;4.92;100.00
19890;BME280;10107;51.198;6.824;2023-12-20T05:02:15;-21450.75;;;4.95;100.00
19890;BME280;10107;51.198;6.824;2023-12-20T05:06:18;-21449.97;;;4.92;100.00
19890;BME280;10107;51.198;6.824;2023-12-20T05:10:20;-21448.88;;;4.88;100.00
19890;BME280;10107;51.198;6.824;2023-12-20T05:14:22;-21447.28;;;4.82;100.00
19890;BME280;10107;51.198;6.824;2023-12-20T05:18:23;-21446.88;;;4.81;100.00
19890;BME280;10107;51.198;6.824;2023-12-20T05:22:26;-21447.16;;;4.82;100.00
19890;BME280;10107;51.198;6.824;2023-12-20T05:26:28;-21444.88;;;4.73;100.00
19890;BME280;10107;51.198;6.824;2023-12-20T05:30:30;-21444.47;;;4.71;100.00
19890;BME280;10107;51.198;6.824;2023-12-20T05:34:32;-21446.22;;;4.78;100.00
19890;BME280;10107;51.198;6.824;2023-12-20T05:38:35;-21447.00;;;4.81;100.00
19890;BME280;10107;51.198;6.824;2023-12-20T05:42:37;-21447.28;;;4.82;100.00
19890;BME280;10107;51.198;6.824;2023-12-20T05:46:39;-21445.69;;;4.76;100.00
19890;BME280;10107;51.198;6.824;2023-12-20T05:50:40;-21445.00;;;4.73;100.00
19890;BME280;10107;51.198;6.824;2023-12-20T05:54:43;-21446.47;;;4.79;100.00
19890;BME280;10107;51.198;6.824;2023-12-20T05:58:45;-21447.56;;;4.83;100.00
19890;BME280;10107;51.198;6.824;2023-12-20T06:02:46;-21449.03;;;4.89;100.00
19890;BME280;10107;51.198;6.824;2023-12-20T06:06:48;-21450.34;;;4.94;100.00
19890;BME280;10107;51.198;6.824;2023-12-20T06:10:51;-21451.81;;;5.00;100.00
19890;BME280;10107;51.198;6.824;2023-12-20T06:14:53;-21453.03;;;5.04;100.00
19890;BME280;10107;51.198;6.824;2023-12-20T06:18:54;-21453.44;;;5.06;100.00
19890;BME280;10107;51.198;6.824;2023-12-20T06:22:56;-21454.09;;;5.08;100.00
19890;BME280;10107;51.198;6.824;2023-12-20T06:26:59;-21454.50;;;5.10;100.00
19890;BME280;10107;51.198;6.824;2023-12-20T06:31:01;-21455.28;;;5.13;100.00
19890;BME280;10107;51.198;6.824;2023-12-20T06:35:04;-21455.84;;;5.15;100.00
19890;BME280;10107;51.198;6.824;2023-12-20T06:39:06;-21457.03;;;5.20;100.00
19890;BME280;10107;51.198;6.824;2023-12-20T06:43:12;-21457.44;;;5.21;100.00
19890;BME280;10107;51.198;6.824;2023-12-20T06:47:13;-21458.09;;;5.24;100.00
19890;BME280;10107;51.198;6.824;2023-12-20T06:51:16;-21458.22;;;5.24;100.00
19890;BME280;10107;51.198;6.824;2023-12-20T06:55:18;-21458.22;;;5.24;100.00
19890;BME280;10107;51.198;6.824;2023-12-20T06:59:21;-21457.97;;;5.23;100.00
19890;BME280;10107;51.198;6.824;2023-12-20T07:03:22;-21458.91;;;5.27;100.00
19890;BME280;10107;51.198;6.824;2023-12-20T07:07:24;-21459.44;;;5.29;100.00
19890;BME280;10107;51.198;6.824;2023-12-20T07:11:26;-21459.44;;;5.29;100.00
19890;BME280;10107;51.198;6.824;2023-12-20T07:15:29;-21459.69;;;5.30;100.00
19890;BME280;10107;51.198;6.824;2023-12-20T07:19:31;-21460.25;;;5.32;100.00
19890;BME280;10107;51.198;6.824;2023-12-20T07:23:32;-21461.31;;;5.36;100.00
19890;BME280;10107;51.198;6.824;2023-12-20T07:27:34;-21461.97;;;5.39;100.00
19890;BME280;10107;51.198;6.824;2023-12-20T07:31:37;-21462.25;;;5.40;100.00
19890;BME280;10107;51.198;6.824;2023-12-20T07:35:39;-21463.44;;;5.44;100.00
19890;BME280;10107;51.198;6.824;2023-12-20T07:39:40;-21464.09;;;5.47;100.00
19890;BME280;10107;51.198;6.824;2023-12-20T07:43:43;-21464.38;;;5.48;100.00
19890;BME280;10107;51.198;6.824;2023-12-20T07:47:46;-21465.03;;;5.50;100.00
19890;BME280;10107;51.198;6.824;2023-12-20T07:51:49;-21465.44;;;5.52;100.00
19890;BME280;10107;51.198;6.824;2023-12-20T07:55:51;-21465.72;;;5.53;100.00
19890;BME280;10107;51.198;6.824;2023-12-20T07:59:53;-21466.38;;;5.55;100.00
19890;BME280;10107;51.198;6.824;2023-12-20T08:03:56;-21466.78;;;5.57;100.00
19890;BME280;10107;51.198;6.824;2023-12-20T08:07:58;-21466.91;;;5.58;100.00
19890;BME280;10107;51.198;6.824;2023-12-20T08:12:00;-21466.78;;;5.57;100.00
19890;BME280;10107;51.198;6.824;2023-12-20T08:16:01;-21467.56;;;5.60;100.00
19890;BME280;10107;51.198;6.824;2023-12-20T08:20:07;-21467.56;;;5.60;100.00
19890;BME280;10107;51.198;6.824;2023-12-20T08:24:08;-21468.78;;;5.65;100.00
19890;BME280;10107;51.198;6.824;2023-12-20T08:28:10;-21469.03;;;5.66;100.00
19890;BME280;10107;51.198;6.824;2023-12-20T08:32:11;-21469.31;;;5.67;100.00
19890;BME280;10107;51.198;6.824;2023-12-20T08:36:15;-21470.38;;;5.71;100.00
19890;BME280;10107;51.198;6.824;2023-12-20T08:40:18;-21470.66;;;5.72;100.00
19890;BME280;10107;51.198;6.824;2023-12-20T08:44:20;-21471.06;;;5.73;100.00
19890;BME280;10107;51.198;6.824;2023-12-20T08:48:23;-21472.13;;;5.78;100.00
19890;BME280;10107;51.198;6.824;2023-12-20T08:52:26;-21472.78;;;5.80;100.00
19890;BME280;10107;51.198;6.824;2023-12-20T08:56:27;-21473.72;;;5.84;100.00
19890;BME280;10107;51.198;6.824;2023-12-20T09:00:29;-21472.66;;;5.80;100.00
19890;BME280;10107;51.198;6.824;2023-12-20T09:04:31;-21472.38;;;5.79;100.00
19890;BME280;10107;51.198;6.824;2023-12-20T09:08:34;-21472.66;;;5.80;100.00
19890;BME280;10107;51.198;6.824;2023-12-20T09:12:35;-21473.59;;;5.83;100.00
19890;BME280;10107;51.198;6.824;2023-12-20T09:16:40;-21473.31;;;5.82;100.00
19890;BME280;10107;51.198;6.824;2023-12-20T09:20:41;-21474.13;;;5.85;100.00
19890;BME280;10107;51.198;6.824;2023-12-20T09:24:44;-21475.84;;;5.92;100.00
19890;BME280;10107;51.198;6.824;2023-12-20T09:28:46;-21476.25;;;5.93;100.00
19890;BME280;10107;51.198;6.824;2023-12-20T09:32:48;-21476.66;;;5.95;100.00
19890;BME280;10107;51.198;6.824;2023-12-20T09:36:49;-21476.91;;;5.96;100.00
19890;BME280;10107;51.198;6.824;2023-12-20T09:40:52;-21477.47;;;5.98;100.00
19890;BME280;10107;51.198;6.824;2023-12-20T09:44:57;-21477.59;;;5.99;100.00
19890;BME280;10107;51.198;6.824;2023-12-20T09:49:01;-21477.47;;;5.98;100.00
19890;BME280;10107;51.198;6.824;2023-12-20T09:53:04;-21479.47;;;6.06;100.00
19890;BME280;10107;51.198;6.824;2023-12-20T09:57:10;-21480.38;;;6.09;100.00
19890;BME280;10107;51.198;6.824;2023-12-20T10:01:12;-21482.00;;;6.15;100.00
19890;BME280;10107;51.198;6.824;2023-12-20T10:05:16;-21482.78;;;6.19;100.00
19890;BME280;10107;51.198;6.824;2023-12-20T10:09:19;-21481.72;;;6.14;100.00
19890;BME280;10107;51.198;6.824;2023-12-20T10:13:22;-21482.66;;;6.18;100.00
19890;BME280;10107;51.198;6.824;2023-12-20T10:17:23;-21481.72;;;6.14;100.00
19890;BME280;10107;51.198;6.824;2023-12-20T10:21:29;-21480.94;;;6.11;100.00
19890;BME280;10107;51.198;6.824;2023-12-20T10:25:31;-21481.72;;;6.14;100.00
19890;BME280;10107;51.198;6.824;2023-12-20T10:29:35;-21481.31;;;6.13;100.00
19890;BME280;10107;51.198;6.824;2023-12-20T10:33:36;-21480.25;;;6.09;100.00
19890;BME280;10107;51.198;6.824;2023-12-20T10:37:38;-21480.66;;;6.10;100.00
19890;BME280;10107;51.198;6.824;2023-12-20T10:41:40;-21481.84;;;6.15;100.00
19890;BME280;10107;51.198;6.824;2023-12-20T10:45:44;-21482.00;;;6.15;100.00
19890;BME280;10107;51.198;6.824;2023-12-20T10:49:47;-21483.84;;;6.23;100.00
19890;BME280;10107;51.198;6.824;2023-12-20T10:53:50;-21483.72;;;6.22;100.00
19890;BME280;10107;51.198;6.824;2023-12-20T10:57:53;-21485.47;;;6.29;100.00
19890;BME280;10107;51.198;6.824;2023-12-20T11:01:57;-21486.94;;;6.34;100.00
19890;BME280;10107;51.198;6.824;2023-12-20T11:06:04;-21488.94;;;6.42;100.00
19890;BME280;10107;51.198;6.824;2023-12-20T11:10:14;-21490.00;;;6.46;100.00
19890;BME280;10107;51.198;6.824;2023-12-20T11:14:22;-21490.00;;;6.46;100.00
19890;BME280;10107;51.198;6.824;2023-12-20T11:18:29;-21487.31;;;6.36;100.00
19890;BME280;10107;51.198;6.824;2023-12-20T11:22:32;-21487.47;;;6.37;100.00
19890;BME280;10107;51.198;6.824;2023-12-20T11:26:35;-21487.84;;;6.38;100.00
19890;BME280;10107;51.198;6.824;2023-12-20T11:30:45;-21488.13;;;6.39;100.00
19890;BME280;10107;51.198;6.824;2023-12-20T11:34:50;-21488.78;;;6.42;100.00
19890;BME280;10107;51.198;6.824;2023-12-20T11:38:56;-21487.72;;;6.38;100.00
19890;BME280;10107;51.198;6.824;2023-12-20T11:42:58;-21487.06;;;6.35;100.00
19890;BME280;10107;51.198;6.824;2023-12-20T11:47:00;-21488.94;;;6.42;100.00
19890;BME280;10107;51.198;6.824;2023-12-20T11:51:09;-21490.25;;;6.47;100.00
19890;BME280;10107;51.198;6.824;2023-12-20T11:55:10;-21489.72;;;6.45;100.00
19890;BME280;10107;51.198;6.824;2023-12-20T11:59:13;-21491.19;;;6.51;100.00
19890;BME280;10107;51.198;6.824;2023-12-20T12:03:15;-21498.78;;;6.80;100.00
19890;BME280;10107;51.198;6.824;2023-12-20T12:07:18;-21505.84;;;7.07;100.00
19890;BME280;10107;51.198;6.824;2023-12-20T12:11:20;-21510.91;;;7.27;100.00
19890;BME280;10107;51.198;6.824;2023-12-20T12:15:22;-21509.97;;;7.23;100.00
19890;BME280;10107;51.198;6.824;2023-12-20T12:19:26;-21505.84;;;7.07;100.00
19890;BME280;10107;51.198;6.824;2023-12-20T12:23:30;-21503.31;;;6.98;100.00
19890;BME280;10107;51.198;6.824;2023-12-20T12:27:32;-21502.25;;;6.93;100.00
19890;BME280;10107;51.198;6.824;2023-12-20T12:31:34;-21498.66;;;6.80;100.00
19890;BME280;10107;51.198;6.824;2023-12-20T12:35:36;-21496.66;;;6.72;100.00
19890;BME280;10107;51.198;6.824;2023-12-20T12:39:40;-21495.72;;;6.68;100.00
19890;BME280;10107;51.198;6.824;2023-12-20T12:43:41;-21497.19;;;6.74;100.00
19890;BME280;10107;51.198;6.824;2023-12-20T12:47:43;-21496.13;;;6.70;100.00
19890;BME280;10107;51.198;6.824;2023-12-20T12:51:45;-21496.38;;;6.71;100.00
19890;BME280;10107;51.198;6.824;2023-12-20T12:55:48;-21495.59;;;6.68;100.00
19890;BME280;10107;51.198;6.824;2023-12-20T12:59:50;-21496.38;;;6.71;100.00
19890;BME280;10107;51.198;6.824;2023-12-20T13:03:51;-21496.25;;;6.70;100.00
19890;BME280;10107;51.198;6.824;2023-12-20T13:07:53;-21496.25;;;6.70;100.00
19890;BME280;10107;51.198;6.824;2023-12-20T13:11:56;-21494.25;;;6.63;100.00
19890;BME280;10107;51.198;6.824;2023-12-20T13:15:59;-21492.53;;;6.56;100.00
19890;BME280;10107;51.198;6.824;2023-12-20T13:20:01;-21491.59;;;6.52;100.00
19890;BME280;10107;51.198;6.824;2023-12-20T13:24:04;-21491.06;;;6.50;100.00
19890;BME280;10107;51.198;6.824;2023-12-20T13:28:07;-21493.31;;;6.59;100.00
19890;BME280;10107;51.198;6.824;2023-12-20T13:32:09;-21492.13;;;6.54;100.00
19890;BME280;10107;51.198;6.824;2023-12-20T13:36:11;-21492.94;;;6.58;100.00
19890;BME280;10107;51.198;6.824;2023-12-20T13:40:13;-21490.94;;;6.50;100.00
19890;BME280;10107;51.198;6.824;2023-12-20T13:44:16;-21490.41;;;6.48;100.00
19890;BME280;10107;51.198;6.824;2023-12-20T13:48:17;-21489.47;;;6.44;100.00
19890;BME280;10107;51.198;6.824;2023-12-20T13:52:19;-21487.59;;;6.37;100.00
19890;BME280;10107;51.198;6.824;2023-12-20T13:56:21;-21486.94;;;6.34;100.00
19890;BME280;10107;51.198;6.824;2023-12-20T14:00:24;-21486.13;;;6.31;100.00
19890;BME280;10107;51.198;6.824;2023-12-20T14:04:26;-21485.72;;;6.30;100.00
19890;BME280;10107;51.198;6.824;2023-12-20T14:08:28;-21486.13;;;6.31;100.00
19890;BME280;10107;51.198;6.824;2023-12-20T14:12:29;-21486.78;;;6.34;100.00
19890;BME280;10107;51.198;6.824;2023-12-20T14:16:34;-21487.06;;;6.35;100.00
19890;BME280;10107;51.198;6.824;2023-12-20T14:20:36;-21487.47;;;6.37;100.00
19890;BME280;10107;51.198;6.824;2023-12-20T14:24:39;-21487.84;;;6.38;100.00
19890;BME280;10107;51.198;6.824;2023-12-20T14:28:41;-21487.84;;;6.38;100.00
19890;BME280;10107;51.198;6.824;2023-12-20T14:32:44;-21488.25;;;6.40;100.00
19890;BME280;10107;51.198;6.824;2023-12-20T14:36:46;-21488.66;;;6.41;100.00
19890;BME280;10107;51.198;6.824;2023-12-20T14:40:48;-21489.19;;;6.43;100.00
19890;BME280;10107;51.198;6.824;2023-12-20T14:44:50;-21489.72;;;6.45;100.00
19890;BME280;10107;51.198;6.824;2023-12-20T14:48:53;-21490.00;;;6.46;100.00
19890;BME280;10107;51.198;6.824;2023-12-20T14:52:55;-21490.41;;;6.48;100.00
19890;BME280;10107;51.198;6.824;2023-12-20T14:56:57;-21490.25;;;6.47;100.00
19890;BME280;10107;51.198;6.824;2023-12-20T15:00:59;-21491.59;;;6.52;100.00
19890;BME280;10107;51.198;6.824;2023-12-20T15:05:02;-21492.13;;;6.54;100.00
19890;BME280;10107;51.198;6.824;2023-12-20T15:09:04;-21492.78;;;6.57;100.00
19890;BME280;10107;51.198;6.824;2023-12-20T15:13:06;-21492.66;;;6.57;100.00
19890;BME280;10107;51.198;6.824;2023-12-20T15:17:07;-21493.59;;;6.60;100.00
19890;BME280;10107;51.198;6.824;2023-12-20T15:21:11;-21493.72;;;6.61;100.00
19890;BME280;10107;51.198;6.824;2023-12-20T15:25:12;-21493.84;;;6.61;100.00
19890;BME280;10107;51.198;6.824;2023-12-20T15:29:20;-21493.72;;;6.61;100.00
19890;BME280;10107;51.198;6.824;2023-12-20T15:33:21;-21493.31;;;6.59;100.00
19890;BME280;10107;51.198;6.824;2023-12-20T15:37:24;-21493.47;;;6.60;100.00
19890;BME280;10107;51.198;6.824;2023-12-20T15:41:26;-21493.59;;;6.60;100.00
19890;BME280;10107;51.198;6.824;2023-12-20T15:45:28;-21493.47;;;6.60;100.00
19890;BME280;10107;51.198;6.824;2023-12-20T15:49:30;-21494.00;;;6.62;100.00
19890;BME280;10107;51.198;6.824;2023-12-20T15:53:33;-21493.19;;;6.59;100.00
19890;BME280;10107;51.198;6.824;2023-12-20T15:57:34;-21492.94;;;6.58;100.00
19890;BME280;10107;51.198;6.824;2023-12-20T16:01:36;-21492.53;;;6.56;100.00
19890;BME280;10107;51.198;6.824;2023-12-20T16:05:38;-21492.41;;;6.56;100.00
19890;BME280;10107;51.198;6.824;2023-12-20T16:09:41;-21492.94;;;6.58;100.00
19890;BME280;10107;51.198;6.824;2023-12-20T16:13:43;-21492.66;;;6.57;100.00
19890;BME280;10107;51.198;6.824;2023-12-20T16:17:44;-21493.31;;;6.59;100.00
19890;BME280;10107;51.198;6.824;2023-12-20T16:21:46;-21493.31;;;6.59;100.00
19890;BME280;10107;51.198;6.824;2023-12-20T16:25:49;-21493.72;;;6.61;100.00
19890;BME280;10107;51.198;6.824;2023-12-20T16:29:50;-21494.25;;;6.63;100.00
19890;BME280;10107;51.198;6.824;2023-12-20T16:33:52;-21494.66;;;6.64;100.00
19890;BME280;10107;51.198;6.824;2023-12-20T16:37:54;-21494.94;;;6.65;100.00
19890;BME280;10107;51.198;6.824;2023-12-20T16:41:58;-21494.53;;;6.64;100.00
19890;BME280;10107;51.198;6.824;2023-12-20T16:46:00;-21494.13;;;6.62;100.00
19890;BME280;10107;51.198;6.824;2023-12-20T16:50:02;-21493.84;;;6.61;100.00
19890;BME280;10107;51.198;6.824;2023-12-20T16:54:06;-21493.72;;;6.61;100.00
19890;BME280;10107;51.198;6.824;2023-12-20T16:58:09;-21494.41;;;6.63;100.00
19890;BME280;10107;51.198;6.824;2023-12-20T17:02:10;-21495.19;;;6.66;100.00
19890;BME280;10107;51.198;6.824;2023-12-20T17:06:12;-21495.06;;;6.66;100.00
19890;BME280;10107;51.198;6.824;2023-12-20T17:10:14;-21495.84;;;6.69;100.00
19890;BME280;10107;51.198;6.824;2023-12-20T17:14:17;-21496.13;;;6.70;100.00
19890;BME280;10107;51.198;6.824;2023-12-20T17:18:18;-21496.13;;;6.70;100.00
19890;BME280;10107;51.198;6.824;2023-12-20T17:22:20;-21495.59;;;6.68;100.00
19890;BME280;10107;51.198;6.824;2023-12-20T17:26:22;-21495.59;;;6.68;100.00
19890;BME280;10107;51.198;6.824;2023-12-20T17:30:25;-21495.06;;;6.66;100.00
19890;BME280;10107;51.198;6.824;2023-12-20T17:34:26;-21495.72;;;6.68;100.00
19890;BME280;10107;51.198;6.824;2023-12-20T17:38:28;-21495.47;;;6.67;100.00
19890;BME280;10107;51.198;6.824;2023-12-20T17:42:30;-21495.31;;;6.67;100.00
19890;BME280;10107;51.198;6.824;2023-12-20T17:46:33;-21495.59;;;6.68;100.00
19890;BME280;10107;51.198;6.824;2023-12-20T17:50:35;-21496.53;;;6.71;100.00
19890;BME280;10107;51.198;6.824;2023-12-20T17:54:36;-21496.94;;;6.73;100.00
19890;BME280;10107;51.198;6.824;2023-12-20T17:58:38;-21497.47;;;6.75;100.00
19890;BME280;10107;51.198;6.824;2023-12-20T18:02:41;-21497.72;;;6.76;100.00
19890;BME280;10107;51.198;6.824;2023-12-20T18:06:42;-21498.38;;;6.79;100.00
19890;BME280;10107;51.198;6.824;2023-12-20T18:10:44;-21498.66;;;6.80;100.00
19890;BME280;10107;51.198;6.824;2023-12-20T18:14:46;-21499.59;;;6.83;100.00
19890;BME280;10107;51.198;6.824;2023-12-20T18:18:50;-21501.06;;;6.89;100.00
19890;BME280;10107;51.198;6.824;2023-12-20T18:22:51;-21501.31;;;6.90;100.00
19890;BME280;10107;51.198;6.824;2023-12-20T18:26:53;-21502.38;;;6.94;100.00
19890;BME280;10107;51.198;6.824;2023-12-20T18:30:55;-21503.44;;;6.98;100.00
19890;BME280;10107;51.198;6.824;2023-12-20T18:34:58;-21504.38;;;7.02;100.00
19890;BME280;10107;51.198;6.824;2023-12-20T18:38:59;-21504.50;;;7.02;100.00
19890;BME280;10107;51.198;6.824;2023-12-20T18:43:01;-21505.72;;;7.07;100.00
19890;BME280;10107;51.198;6.824;2023-12-20T18:47:04;-21505.84;;;7.07;100.00
19890;BME280;10107;51.198;6.824;2023-12-20T18:51:07;-21507.44;;;7.13;100.00
19890;BME280;10107;51.198;6.824;2023-12-20T18:55:08;-21507.03;;;7.12;100.00
19890;BME280;10107;51.198;6.824;2023-12-20T18:59:10;-21508.25;;;7.17;100.00
19890;BME280;10107;51.198;6.824;2023-12-20T19:03:13;-21508.66;;;7.18;100.00
19890;BME280;10107;51.198;6.824;2023-12-20T19:07:16;-21509.44;;;7.21;100.00
19890;BME280;10107;51.198;6.824;2023-12-20T19:11:18;-21510.63;;;7.26;100.00
19890;BME280;10107;51.198;6.824;2023-12-20T19:15:20;-21511.03;;;7.27;100.00
19890;BME280;10107;51.198;6.824;2023-12-20T19:19:21;-21510.50;;;7.25;100.00
19890;BME280;10107;51.198;6.824;2023-12-20T19:23:25;-21511.44;;;7.29;100.00
19890;BME280;10107;51.198;6.824;2023-12-20T19:27:27;-21511.97;;;7.31;100.00
19890;BME280;10107;51.198;6.824;2023-12-20T19:31:29;-21512.09;;;7.31;100.00
19890;BME280;10107;51.198;6.824;2023-12-20T19:35:31;-21512.25;;;7.32;100.00
19890;BME280;10107;51.198;6.824;2023-12-20T19:39:34;-21512.91;;;7.34;100.00
19890;BME280;10107;51.198;6.824;2023-12-20T19:43:37;-21512.78;;;7.34;100.00
19890;BME280;10107;51.198;6.824;2023-12-20T19:47:42;-21512.91;;;7.34;100.00
19890;BME280;10107;51.198;6.824;2023-12-20T19:51:48;-21513.44;;;7.37;100.00
19890;BME280;10107;51.198;6.824;2023-12-20T19:55:51;-21513.16;;;7.36;100.00
19890;BME280;10107;51.198;6.824;2023-12-20T19:59:53;-21513.16;;;7.36;100.00
19890;BME280;10107;51.198;6.824;2023-12-20T20:03:55;-21513.44;;;7.37;100.00
19890;BME280;10107;51.198;6.824;2023-12-20T20:07:57;-21514.09;;;7.39;100.00
19890;BME280;10107;51.198;6.824;2023-12-20T20:12:00;-21514.09;;;7.39;100.00
19890;BME280;10107;51.198;6.824;2023-12-20T20:16:02;-21513.69;;;7.38;100.00
19890;BME280;10107;51.198;6.824;2023-12-20T20:20:06;-21515.31;;;7.44;100.00
19890;BME280;10107;51.198;6.824;2023-12-20T20:24:08;-21514.91;;;7.42;100.00
19890;BME280;10107;51.198;6.824;2023-12-20T20:28:11;-21515.44;;;7.44;100.00
19890;BME280;10107;51.198;6.824;2023-12-20T20:32:12;-21515.03;;;7.43;100.00
19890;BME280;10107;51.198;6.824;2023-12-20T20:36:14;-21514.38;;;7.40;100.00
19890;BME280;10107;51.198;6.824;2023-12-20T20:40:16;-21513.16;;;7.36;100.00
19890;BME280;10107;51.198;6.824;2023-12-20T20:44:19;-21513.31;;;7.36;100.00
19890;BME280;10107;51.198;6.824;2023-12-20T20:48:21;-21512.50;;;7.33;100.00
19890;BME280;10107;51.198;6.824;2023-12-20T20:52:23;-21511.56;;;7.29;100.00
19890;BME280;10107;51.198;6.824;2023-12-20T20:56:24;-21510.78;;;7.26;100.00
19890;BME280;10107;51.198;6.824;2023-12-20T21:00:27;-21510.91;;;7.27;100.00
19890;BME280;10107;51.198;6.824;2023-12-20T21:04:30;-21510.25;;;7.24;100.00
19890;BME280;10107;51.198;6.824;2023-12-20T21:08:32;-21510.25;;;7.24;100.00